createdAt,value
2022-12-06T00:01:34.917Z,97887.09
2022-12-06T00:04:05.721Z,97891.38
2022-12-06T00:06:37.687Z,97882.44
2022-12-06T00:09:05.820Z,97885.72
2022-12-06T00:11:36.276Z,97896.44
2022-12-06T00:14:06.408Z,97890.19
2022-12-06T00:16:35.241Z,97883.91
2022-12-06T00:19:03.914Z,97887.56
2022-12-06T00:21:36.514Z,97878.00
2022-12-06T00:24:07.483Z,97881.00
2022-12-06T00:26:37.489Z,97876.56
2022-12-06T00:29:06.319Z,97869.38
2022-12-06T00:31:35.791Z,97864.28
2022-12-06T00:34:03.830Z,97870.56
2022-12-06T00:36:33.988Z,97873.38
2022-12-06T00:39:03.304Z,97863.63
2022-12-06T00:41:30.800Z,97867.47
2022-12-06T00:43:58.469Z,97874.72
2022-12-06T00:46:28.666Z,97874.38
2022-12-06T00:48:58.029Z,97868.75
2022-12-06T00:51:28.049Z,97869.75
2022-12-06T00:53:55.869Z,97868.91
2022-12-06T00:56:23.719Z,97868.09
2022-12-06T00:58:51.320Z,97871.72
2022-12-06T01:01:21.837Z,97862.72
2022-12-06T01:03:52.311Z,97865.19
2022-12-06T01:06:28.640Z,97863.75
2022-12-06T01:08:57.477Z,97858.03
2022-12-06T01:11:26.067Z,97863.91
2022-12-06T01:13:54.577Z,97858.38
2022-12-06T01:16:25.703Z,97862.94
2022-12-06T01:18:55.807Z,97858.84
2022-12-06T01:21:24.488Z,97855.19
2022-12-06T01:23:54.397Z,97845.66
2022-12-06T01:26:23.508Z,97847.94
2022-12-06T01:28:51.264Z,97839.56
2022-12-06T01:31:19.749Z,97824.13
2022-12-06T01:33:47.625Z,97822.47
2022-12-06T01:36:23.585Z,97821.56
2022-12-06T01:38:52.925Z,97820.19
2022-12-06T01:41:21.760Z,97804.75
2022-12-06T01:43:50.817Z,97808.84
2022-12-06T01:46:25.126Z,97806.22
2022-12-06T01:49:04.585Z,97806.78
2022-12-06T01:51:32.524Z,97811.84
2022-12-06T01:54:02.243Z,97804.41
2022-12-06T01:56:30.487Z,97807.59
2022-12-06T01:58:59.673Z,97801.03
2022-12-06T02:01:30.265Z,97804.50
2022-12-06T02:04:01.309Z,97805.69
2022-12-06T02:06:31.039Z,97802.84
2022-12-06T02:09:06.648Z,97805.50
2022-12-06T02:11:35.680Z,97804.59
2022-12-06T02:14:07.462Z,97797.50
2022-12-06T02:16:56.931Z,97797.78
2022-12-06T02:20:06.782Z,97792.69
2022-12-06T02:22:58.785Z,97789.53
2022-12-06T02:25:57.160Z,97779.16
2022-12-06T02:28:52.264Z,97778.97
2022-12-06T02:31:29.033Z,97781.53
2022-12-06T02:34:40.462Z,97771.97
2022-12-06T02:37:14.568Z,97762.25
2022-12-06T02:39:45.359Z,97771.16
2022-12-06T02:42:20.434Z,97765.53
2022-12-06T02:44:53.857Z,97764.88
2022-12-06T02:47:40.041Z,97767.53
2022-12-06T02:50:13.938Z,97762.91
2022-12-06T02:52:45.159Z,97762.38
2022-12-06T02:55:15.937Z,97765.97
2022-12-06T02:57:49.312Z,97769.25
2022-12-06T03:00:40.906Z,97758.88
2022-12-06T03:03:39.558Z,97761.53
2022-12-06T03:06:45.728Z,97757.47
2022-12-06T03:09:24.849Z,97749.00
2022-12-06T03:12:18.795Z,97744.47
2022-12-06T03:15:01.261Z,97744.00
2022-12-06T03:17:41.959Z,97747.91
2022-12-06T03:20:19.480Z,97741.00
2022-12-06T03:22:53.049Z,97743.00
2022-12-06T03:25:21.408Z,97741.38
2022-12-06T03:27:50.976Z,97742.38
2022-12-06T03:30:18.680Z,97748.03
2022-12-06T03:32:49.385Z,97750.28
2022-12-06T03:35:26.178Z,97752.09
2022-12-06T03:38:02.001Z,97748.28
2022-12-06T03:40:32.676Z,97744.38
2022-12-06T03:43:00.758Z,97734.84
2022-12-06T03:45:44.600Z,97734.84
2022-12-06T03:48:26.109Z,97734.22
2022-12-06T03:51:02.969Z,97739.03
2022-12-06T03:53:30.506Z,97733.56
2022-12-06T03:55:58.001Z,97730.13
2022-12-06T03:58:25.969Z,97732.84
2022-12-06T04:00:53.650Z,97735.47
2022-12-06T04:03:21.315Z,97737.50
2022-12-06T04:05:48.931Z,97733.84
2022-12-06T04:08:16.524Z,97731.38
2022-12-06T04:10:44.021Z,97724.56
2022-12-06T04:13:15.324Z,97721.94
2022-12-06T04:15:45.803Z,97717.69
2022-12-06T04:18:14.644Z,97717.69
2022-12-06T04:21:05.308Z,97721.31
2022-12-06T04:23:36.923Z,97718.50
2022-12-06T04:26:06.636Z,97717.31
2022-12-06T04:28:53.098Z,97717.75
2022-12-06T04:31:39.049Z,97720.75
2022-12-06T04:34:25.220Z,97722.66
2022-12-06T04:37:12.059Z,97719.56
2022-12-06T04:39:39.695Z,97712.69
2022-12-06T04:42:26.071Z,97715.50
2022-12-06T04:44:53.668Z,97715.31
2022-12-06T04:47:21.365Z,97714.09
2022-12-06T04:49:49.157Z,97710.94
2022-12-06T04:52:17.382Z,97711.16
2022-12-06T04:54:44.950Z,97712.22
2022-12-06T04:57:14.217Z,97709.41
2022-12-06T04:59:43.710Z,97712.41
2022-12-06T05:02:14.131Z,97714.69
2022-12-06T05:04:41.927Z,97710.59
2022-12-06T05:07:11.837Z,97711.59
2022-12-06T05:09:39.498Z,97708.16
2022-12-06T05:12:07.505Z,97708.16
2022-12-06T05:14:35.042Z,97708.31
2022-12-06T05:21:21.566Z,97710.50
2022-12-06T05:23:49.668Z,97709.50
2022-12-06T05:26:20.195Z,97700.78
2022-12-06T05:28:49.133Z,97695.44
2022-12-06T05:31:17.798Z,97694.78
2022-12-06T05:33:45.754Z,97694.28
2022-12-06T05:36:19.195Z,97689.25
2022-12-06T05:38:51.273Z,97691.72
2022-12-06T05:41:21.315Z,97704.44
2022-12-06T05:43:49.544Z,97709.69
2022-12-06T05:46:17.359Z,97700.78
2022-12-06T05:48:45.117Z,97696.16
2022-12-06T05:51:12.704Z,97700.63
2022-12-06T05:53:41.480Z,97709.50
2022-12-06T05:56:11.435Z,97707.22
2022-12-06T05:58:39.799Z,97704.06
2022-12-06T06:01:08.434Z,97703.06
2022-12-06T06:03:38.937Z,97700.63
2022-12-06T06:06:08.651Z,97691.44
2022-12-06T06:08:36.186Z,97696.53
2022-12-06T06:11:03.785Z,97698.16
2022-12-06T06:13:31.345Z,97693.09
2022-12-06T06:15:58.936Z,97693.44
2022-12-06T06:18:26.506Z,97689.38
2022-12-06T06:20:57.574Z,97687.09
2022-12-06T06:23:26.375Z,97696.81
2022-12-06T06:25:54.434Z,97691.53
2022-12-06T06:28:22.396Z,97697.63
2022-12-06T06:30:50.204Z,97698.06
2022-12-06T06:33:17.724Z,97702.53
2022-12-06T06:35:45.270Z,97701.72
2022-12-06T06:38:12.924Z,97706.97
2022-12-06T06:40:40.505Z,97708.88
2022-12-06T06:43:20.688Z,97704.88
2022-12-06T06:46:02.949Z,97708.53
2022-12-06T06:48:33.422Z,97707.97
2022-12-06T06:51:13.172Z,97713.66
2022-12-06T06:53:41.062Z,97708.41
2022-12-06T06:56:08.985Z,97711.69
2022-12-06T06:58:36.495Z,97714.97
2022-12-06T07:01:07.557Z,97711.97
2022-12-06T07:03:35.433Z,97706.50
2022-12-06T07:06:09.553Z,97694.34
2022-12-06T07:08:38.147Z,97700.44
2022-12-06T07:11:06.054Z,97701.44
2022-12-06T07:13:33.982Z,97704.06
2022-12-06T07:16:04.657Z,97707.69
2022-12-06T07:18:32.381Z,97707.22
2022-12-06T07:21:03.776Z,97712.88
2022-12-06T07:23:33.459Z,97717.31
2022-12-06T07:26:06.366Z,97714.97
2022-12-06T07:28:38.275Z,97720.03
2022-12-06T07:31:32.137Z,97716.41
2022-12-06T07:34:02.141Z,97717.88
2022-12-06T07:36:32.306Z,97720.50
2022-12-06T07:39:00.494Z,97713.22
2022-12-06T07:41:48.419Z,97709.97
2022-12-06T07:45:01.573Z,97710.59
2022-12-06T07:47:37.931Z,97702.31
2022-12-06T07:50:10.537Z,97703.97
2022-12-06T07:52:42.681Z,97707.44
2022-12-06T07:55:11.698Z,97707.59
2022-12-06T07:57:43.393Z,97711.97
2022-12-06T08:00:14.902Z,97703.25
2022-12-06T08:02:42.904Z,97704.44
2022-12-06T08:05:11.237Z,97706.88
2022-12-06T08:07:39.075Z,97697.34
2022-12-06T08:10:07.671Z,97701.59
2022-12-06T08:12:35.157Z,97705.03
2022-12-06T08:15:03.047Z,97704.44
2022-12-06T08:17:30.982Z,97704.06
2022-12-06T08:19:58.886Z,97696.16
2022-12-06T08:22:28.273Z,97704.44
2022-12-06T08:24:55.774Z,97705.59
2022-12-06T08:27:23.291Z,97702.16
2022-12-06T08:29:50.825Z,97703.13
2022-12-06T08:32:18.574Z,97701.34
2022-12-06T08:34:46.019Z,97702.34
2022-12-06T08:37:13.517Z,97703.78
2022-12-06T08:39:41.022Z,97697.88
2022-12-06T08:42:08.646Z,97698.44
2022-12-06T08:44:36.585Z,97706.34
2022-12-06T08:47:04.604Z,97708.31
2022-12-06T08:49:32.437Z,97707.78
2022-12-06T08:52:00.186Z,97709.63
2022-12-06T08:54:28.319Z,97707.44
2022-12-06T08:56:56.025Z,97702.34
2022-12-06T08:59:24.143Z,97709.25
2022-12-06T09:01:51.866Z,97703.44
2022-12-06T09:04:19.594Z,97703.44
2022-12-06T09:06:47.665Z,97704.22
2022-12-06T09:09:17.115Z,97700.88
2022-12-06T09:11:46.084Z,97707.59
2022-12-06T09:14:21.139Z,97703.78
2022-12-06T09:16:50.653Z,97696.91
2022-12-06T09:19:19.565Z,97700.16
2022-12-06T09:21:47.324Z,97698.53
2022-12-06T09:24:16.626Z,97702.16
2022-12-06T09:26:44.274Z,97698.72
2022-12-06T09:29:11.825Z,97696.34
2022-12-06T09:31:40.568Z,97696.91
2022-12-06T09:34:09.363Z,97697.88
2022-12-06T09:36:45.396Z,97694.00
2022-12-06T09:39:24.966Z,97689.38
2022-12-06T09:41:55.476Z,97686.72
2022-12-06T09:44:44.281Z,97686.91
2022-12-06T09:47:17.936Z,97681.28
2022-12-06T09:49:59.757Z,97671.19
2022-12-06T09:52:36.564Z,97668.56
2022-12-06T09:55:32.044Z,97670.22
2022-12-06T09:58:07.955Z,97659.59
2022-12-06T10:00:47.896Z,97658.88
2022-12-06T10:03:15.497Z,97662.59
2022-12-06T10:05:54.440Z,97653.31
2022-12-06T10:08:58.775Z,97654.09
2022-12-06T10:11:43.995Z,97660.19
2022-12-06T10:14:29.863Z,97658.47
2022-12-06T10:17:18.483Z,97644.59
2022-12-06T10:20:10.677Z,97648.56
2022-12-06T10:22:56.481Z,97644.31
2022-12-06T10:25:32.285Z,97643.94
2022-12-06T10:28:32.702Z,97643.31
2022-12-06T10:31:12.085Z,97636.13
2022-12-06T10:33:49.736Z,97641.41
2022-12-06T10:36:27.265Z,97635.31
2022-12-06T10:39:11.902Z,97638.22
2022-12-06T10:41:58.254Z,97627.69
2022-12-06T10:44:33.204Z,97630.25
2022-12-06T10:47:18.839Z,97622.88
2022-12-06T10:50:07.824Z,97629.69
2022-12-06T10:53:01.556Z,97626.34
2022-12-06T10:55:40.585Z,97610.59
2022-12-06T10:58:23.318Z,97617.63
2022-12-06T11:00:55.289Z,97623.78
2022-12-06T11:03:30.137Z,97624.16
2022-12-06T11:06:08.664Z,97617.19
2022-12-06T11:08:44.185Z,97618.88
2022-12-06T11:11:16.745Z,97615.88
2022-12-06T11:14:09.024Z,97621.38
2022-12-06T11:16:41.262Z,97615.66
2022-12-06T11:19:25.777Z,97609.66
2022-12-06T11:22:12.663Z,97608.28
2022-12-06T11:25:06.842Z,97602.72
2022-12-06T11:27:39.935Z,97604.81
2022-12-06T11:30:19.811Z,97603.28
2022-12-06T11:32:51.336Z,97601.38
2022-12-06T11:35:23.604Z,97602.38
2022-12-06T11:37:56.635Z,97605.91
2022-12-06T11:40:30.696Z,97607.16
2022-12-06T11:43:02.317Z,97611.63
2022-12-06T11:45:34.034Z,97605.91
2022-12-06T11:48:11.534Z,97596.16
2022-12-06T11:50:39.255Z,97602.66
2022-12-06T11:53:15.635Z,97594.88
2022-12-06T11:55:46.877Z,97600.75
2022-12-06T11:58:27.117Z,97602.41
2022-12-06T12:01:11.245Z,97595.03
2022-12-06T12:03:41.618Z,97587.50
2022-12-06T12:06:29.244Z,97585.03
2022-12-06T12:09:16.835Z,97579.88
2022-12-06T12:11:44.465Z,97575.97
2022-12-06T12:14:18.345Z,97586.13
2022-12-06T12:16:49.428Z,97580.06
2022-12-06T12:19:41.307Z,97577.63
2022-12-06T12:22:42.897Z,97571.06
2022-12-06T12:25:23.103Z,97574.19
2022-12-06T12:27:53.239Z,97572.19
2022-12-06T12:30:35.465Z,97571.66
2022-12-06T12:33:05.860Z,97566.19
2022-12-06T12:35:38.965Z,97565.28
2022-12-06T12:38:16.986Z,97566.72
2022-12-06T12:40:52.572Z,97568.19
2022-12-06T12:43:23.611Z,97567.72
2022-12-06T12:46:10.157Z,97567.72
2022-12-06T12:48:39.657Z,97568.28
2022-12-06T12:51:34.136Z,97574.38
2022-12-06T12:54:20.000Z,97567.47
2022-12-06T12:56:48.738Z,97561.03
2022-12-06T12:59:20.111Z,97561.22
2022-12-06T13:02:19.364Z,97567.72
2022-12-06T13:05:33.258Z,97564.94
2022-12-06T13:08:22.157Z,97564.03
2022-12-06T13:10:58.463Z,97564.03
2022-12-06T13:13:49.457Z,97568.03
2022-12-06T13:16:23.295Z,97561.88
2022-12-06T13:18:54.697Z,97564.94
2022-12-06T13:21:51.274Z,97559.69
2022-12-06T13:24:25.310Z,97562.69
2022-12-06T13:26:59.506Z,97564.94
2022-12-06T13:29:39.175Z,97559.97
2022-12-06T13:32:32.505Z,97559.69
2022-12-06T13:35:06.572Z,97551.81
2022-12-06T13:37:43.576Z,97549.81
2022-12-06T13:40:46.713Z,97553.25
2022-12-06T13:43:26.247Z,97551.00
2022-12-06T13:46:06.845Z,97550.34
2022-12-06T13:48:58.163Z,97550.56
2022-12-06T13:51:31.770Z,97549.00
2022-12-06T13:54:08.375Z,97548.28
2022-12-06T13:56:35.866Z,97547.47
2022-12-06T13:59:23.229Z,97550.47
2022-12-06T14:01:56.927Z,97542.19
2022-12-06T14:04:24.364Z,97542.09
2022-12-06T14:09:49.626Z,97540.09
2022-12-06T14:12:23.386Z,97540.47
2022-12-06T14:14:57.852Z,97543.66
2022-12-06T14:17:59.844Z,97531.31
2022-12-06T14:20:26.244Z,97535.50
2022-12-06T14:22:54.075Z,97539.94
2022-12-06T14:25:27.130Z,97539.03
2022-12-06T14:28:12.863Z,97539.84
2022-12-06T14:30:40.981Z,97544.56
2022-12-06T14:33:22.307Z,97538.22
2022-12-06T14:35:54.682Z,97543.09
2022-12-06T14:38:28.585Z,97551.19
2022-12-06T14:41:15.426Z,97548.94
2022-12-06T14:43:47.268Z,97549.38
2022-12-06T14:46:17.897Z,97547.47
2022-12-06T14:49:04.336Z,97545.38
2022-12-06T14:51:38.736Z,97544.91
2022-12-06T14:54:31.477Z,97552.56
2022-12-06T14:56:59.531Z,97558.25
2022-12-06T15:00:12.884Z,97555.34
2022-12-06T15:02:26.597Z,97560.25
2022-12-06T15:04:54.176Z,97560.25
2022-12-06T15:07:43.193Z,97559.44
2022-12-06T15:10:18.496Z,97559.44
2022-12-06T15:12:55.603Z,97555.06
2022-12-06T15:15:40.814Z,97554.81
2022-12-06T15:18:14.388Z,97560.78
2022-12-06T15:20:41.892Z,97564.50
2022-12-06T15:23:50.863Z,97557.88
2022-12-06T15:26:19.807Z,97550.53
2022-12-06T15:28:48.042Z,97557.13
2022-12-06T15:31:22.205Z,97555.97
2022-12-06T15:33:50.131Z,97554.34
2022-12-06T15:36:23.455Z,97545.25
2022-12-06T15:38:51.091Z,97547.44
2022-12-06T15:41:21.690Z,97545.38
2022-12-06T15:43:50.123Z,97551.06
2022-12-06T15:46:20.319Z,97546.63
2022-12-06T15:48:47.836Z,97543.84
2022-12-06T15:51:21.375Z,97544.44
2022-12-06T15:53:49.896Z,97549.81
2022-12-06T15:56:20.027Z,97554.22
2022-12-06T15:58:48.374Z,97545.88
2022-12-06T16:01:44.616Z,97550.63
2022-12-06T16:04:16.466Z,97557.84
2022-12-06T16:06:45.066Z,97552.44
2022-12-06T16:09:14.131Z,97551.44
2022-12-06T16:11:41.942Z,97556.84
2022-12-06T16:14:10.168Z,97552.31
2022-12-06T16:16:43.315Z,97543.16
2022-12-06T16:19:11.405Z,97543.97
2022-12-06T16:21:53.603Z,97547.31
2022-12-06T16:24:22.074Z,97551.03
2022-12-06T16:26:49.665Z,97543.31
2022-12-06T16:29:25.135Z,97547.25
2022-12-06T16:31:53.256Z,97537.75
2022-12-06T16:34:21.192Z,97534.91
2022-12-06T16:37:06.700Z,97534.81
2022-12-06T16:39:35.708Z,97534.00
2022-12-06T16:42:06.226Z,97542.41
2022-12-06T16:44:34.065Z,97543.69
2022-12-06T16:47:01.714Z,97539.06
2022-12-06T16:49:48.879Z,97541.69
2022-12-06T16:52:17.105Z,97532.19
2022-12-06T16:54:45.516Z,97539.88
2022-12-06T16:57:13.871Z,97545.50
2022-12-06T16:59:42.953Z,97546.94
2022-12-06T17:02:26.791Z,97540.44
2022-12-06T17:04:55.340Z,97544.69
2022-12-06T17:07:23.284Z,97538.16
2022-12-06T17:09:50.870Z,97537.16
2022-12-06T17:12:18.661Z,97534.53
2022-12-06T17:14:46.351Z,97538.69
2022-12-06T17:17:16.320Z,97542.22
2022-12-06T17:19:44.135Z,97538.94
2022-12-06T17:22:13.735Z,97532.50
2022-12-06T17:24:41.226Z,97539.56
2022-12-06T17:27:09.737Z,97541.03
2022-12-06T17:29:37.320Z,97535.50
2022-12-06T17:32:05.247Z,97531.97
2022-12-06T17:34:33.030Z,97540.56
2022-12-06T17:37:00.665Z,97540.69
2022-12-06T17:39:28.175Z,97540.84
2022-12-06T17:42:14.024Z,97551.19
2022-12-06T17:44:41.539Z,97545.28
2022-12-06T17:47:09.213Z,97547.09
2022-12-06T17:49:38.501Z,97543.66
2022-12-06T17:52:06.079Z,97541.94
2022-12-06T17:54:33.814Z,97541.84
2022-12-06T17:57:01.467Z,97548.06
2022-12-06T17:59:32.044Z,97538.16
2022-12-06T18:02:17.499Z,97542.13
2022-12-06T18:04:47.579Z,97543.13
2022-12-06T18:07:16.685Z,97541.59
2022-12-06T18:09:44.929Z,97547.84
2022-12-06T18:12:14.485Z,97543.88
2022-12-06T18:14:42.420Z,97545.59
2022-12-06T18:17:10.120Z,97540.94
2022-12-06T18:19:38.032Z,97546.19
2022-12-06T18:22:05.487Z,97548.28
2022-12-06T18:24:36.114Z,97539.38
2022-12-06T18:27:07.735Z,97544.13
2022-12-06T18:29:35.323Z,97544.19
2022-12-06T18:32:03.881Z,97549.28
2022-12-06T18:34:31.737Z,97543.88
2022-12-06T18:36:59.497Z,97547.63
2022-12-06T18:39:28.176Z,97548.16
2022-12-06T18:41:55.764Z,97545.00
2022-12-06T18:44:23.899Z,97549.09
2022-12-06T18:46:51.807Z,97543.13
2022-12-06T18:49:19.261Z,97544.28
2022-12-06T18:51:46.801Z,97544.03
2022-12-06T18:54:14.482Z,97545.19
2022-12-06T18:56:42.771Z,97547.16
2022-12-06T18:59:12.018Z,97545.69
2022-12-06T19:01:41.044Z,97550.50
2022-12-06T19:04:13.285Z,97549.97
2022-12-06T19:06:40.776Z,97549.78
2022-12-06T19:09:10.721Z,97551.13
2022-12-06T19:11:43.895Z,97549.50
2022-12-06T19:14:12.025Z,97555.38
2022-12-06T19:16:45.446Z,97547.50
2022-12-06T19:19:25.399Z,97555.09
2022-12-06T19:21:54.587Z,97561.34
2022-12-06T19:24:25.123Z,97558.38
2022-12-06T19:26:54.497Z,97561.19
2022-12-06T19:29:22.187Z,97559.38
2022-12-06T19:31:50.531Z,97555.22
2022-12-06T19:34:21.632Z,97570.50
2022-12-06T19:36:50.501Z,97561.34
2022-12-06T19:39:19.639Z,97564.66
2022-12-06T19:42:07.191Z,97562.84
2022-12-06T19:44:34.950Z,97572.56
2022-12-06T19:47:02.435Z,97569.00
2022-12-06T19:49:30.246Z,97567.19
2022-12-06T19:51:57.812Z,97565.38
2022-12-06T19:54:30.922Z,97569.94
2022-12-06T19:57:00.144Z,97561.25
2022-12-06T19:59:31.264Z,97562.25
2022-12-06T20:01:58.924Z,97565.31
2022-12-06T20:04:34.751Z,97562.16
2022-12-06T20:07:02.415Z,97563.88
2022-12-06T20:09:32.553Z,97558.16
2022-12-06T20:12:02.130Z,97567.13
2022-12-06T20:14:32.715Z,97569.00
2022-12-06T20:17:01.163Z,97569.28
2022-12-06T20:19:29.329Z,97571.63
2022-12-06T20:21:56.896Z,97564.72
2022-12-06T20:24:24.385Z,97562.75
2022-12-06T20:26:54.685Z,97560.78
2022-12-06T20:29:22.605Z,97556.84
2022-12-06T20:31:52.094Z,97550.78
2022-12-06T20:34:20.022Z,97550.31
2022-12-06T20:36:47.702Z,97547.19
2022-12-06T20:39:24.788Z,97551.25
2022-12-06T20:41:53.887Z,97541.75
2022-12-06T20:44:21.584Z,97546.66
2022-12-06T20:46:50.229Z,97550.28
2022-12-06T20:49:17.955Z,97558.16
2022-12-06T20:51:49.703Z,97546.84
2022-12-06T20:54:21.607Z,97557.69
2022-12-06T20:56:52.126Z,97554.88
2022-12-06T20:59:20.617Z,97558.03
2022-12-06T21:01:48.444Z,97549.97
2022-12-06T21:04:17.018Z,97557.03
2022-12-06T21:06:44.834Z,97558.19
2022-12-06T21:09:12.313Z,97551.22
2022-12-06T21:11:40.136Z,97560.16
2022-12-06T21:14:07.575Z,97557.88
2022-12-06T21:16:35.878Z,97561.00
2022-12-06T21:19:06.728Z,97571.66
2022-12-06T21:21:36.865Z,97559.19
2022-12-06T21:24:07.380Z,97558.53
2022-12-06T21:26:35.332Z,97561.63
2022-12-06T21:29:03.941Z,97560.00
2022-12-06T21:31:38.349Z,97556.84
2022-12-06T21:34:06.256Z,97568.66
2022-12-06T21:36:34.044Z,97562.09
2022-12-06T21:39:01.595Z,97568.81
2022-12-06T21:41:29.134Z,97563.09
2022-12-06T21:43:56.745Z,97567.34
2022-12-06T21:46:26.637Z,97565.72
2022-12-06T21:48:59.280Z,97574.41
2022-12-06T21:51:29.678Z,97563.28
2022-12-06T21:53:58.132Z,97570.41
2022-12-06T21:56:28.325Z,97569.69
2022-12-06T21:58:56.262Z,97564.91
2022-12-06T22:01:25.757Z,97564.09
2022-12-06T22:03:54.861Z,97567.06
2022-12-06T22:06:22.823Z,97555.41
2022-12-06T22:09:03.093Z,97561.63
2022-12-06T22:11:30.948Z,97563.63
2022-12-06T22:14:00.018Z,97557.53
2022-12-06T22:16:28.658Z,97555.56
2022-12-06T22:18:56.827Z,97556.56
2022-12-06T22:21:26.779Z,97547.34
2022-12-06T22:23:57.594Z,97546.88
2022-12-06T22:26:30.058Z,97551.13
2022-12-06T22:28:59.282Z,97548.84
2022-12-06T22:31:33.580Z,97546.53
2022-12-06T22:34:02.330Z,97543.91
2022-12-06T22:36:30.856Z,97548.34
2022-12-06T22:39:00.733Z,97550.97
2022-12-06T22:41:29.485Z,97542.41
2022-12-06T22:44:02.964Z,97545.13
2022-12-06T22:46:31.649Z,97539.22
2022-12-06T22:49:00.726Z,97547.66
2022-12-06T22:51:31.265Z,97543.56
2022-12-06T22:54:01.604Z,97536.03
2022-12-06T22:56:30.487Z,97546.69
2022-12-06T22:58:58.890Z,97537.16
2022-12-06T23:01:29.834Z,97540.22
2022-12-06T23:04:00.235Z,97542.50
2022-12-06T23:06:28.114Z,97543.50
2022-12-06T23:08:55.897Z,97541.84
2022-12-06T23:11:27.130Z,97537.59
2022-12-06T23:13:55.807Z,97542.84
2022-12-06T23:16:25.836Z,97535.97
2022-12-06T23:18:53.584Z,97541.03
2022-12-06T23:21:26.103Z,97553.16
2022-12-06T23:23:56.510Z,97549.38
2022-12-06T23:26:26.727Z,97553.16
2022-12-06T23:28:54.315Z,97549.72
2022-12-06T23:31:30.596Z,97542.16
2022-12-06T23:34:04.874Z,97542.16
2022-12-06T23:36:34.694Z,97545.13
2022-12-06T23:39:03.070Z,97550.19
2022-12-06T23:41:32.195Z,97547.41
2022-12-06T23:44:00.335Z,97542.63
2022-12-06T23:46:30.944Z,97538.38
2022-12-06T23:48:59.238Z,97540.03
2022-12-06T23:51:30.951Z,97531.34
2022-12-06T23:54:01.800Z,97541.22
2022-12-06T23:56:35.394Z,97541.03
2022-12-06T23:59:04.545Z,97541.03
